Time;durP1;ratioP1;P1;durP2;ratioP2;P2;SDS_P1;SDS_P2;PMS_P1;PMS_P2;Temp;Humidity;BMP_temperature;BMP_pressure;BME280_temperature;BME280_humidity;BME280_pressure;Samples;Min_cycle;Max_cycle;Signal;HPM_P1;HPM_P2
2024/01/24 00:02:37;;;;;;;2.70;0.68;;;11.00;99.90;;;;;;10059631;28;20490;-67
2024/01/24 00:07:28;;;;;;;1.60;0.80;;;11.00;99.90;;;;;;10059254;28;20049;-66
2024/01/24 00:12:18;;;;;;;2.92;0.68;;;11.10;99.90;;;;;;10058833;28;20031;-67
2024/01/24 00:17:09;;;;;;;3.00;1.40;;;11.10;99.90;;;;;;10063190;28;20123;-66
2024/01/24 00:22:00;;;;;;;2.45;0.80;;;11.10;99.90;;;;;;10062800;28;20064;-67
2024/01/24 00:26:50;;;;;;;3.13;0.90;;;11.10;99.90;;;;;;10059040;28;20136;-66
2024/01/24 00:31:41;;;;;;;1.95;0.77;;;11.10;99.90;;;;;;10058439;28;20029;-66
2024/01/24 00:36:32;;;;;;;2.00;0.80;;;11.10;99.90;;;;;;10056384;28;20377;-66
2024/01/24 00:41:23;;;;;;;2.25;0.80;;;11.10;99.90;;;;;;10059638;28;20029;-66
2024/01/24 00:46:13;;;;;;;2.60;0.63;;;11.20;99.90;;;;;;10057838;28;20025;-67
2024/01/24 00:51:04;;;;;;;0.90;0.70;;;11.20;99.90;;;;;;10058296;28;20566;-66
2024/01/24 00:55:56;;;;;;;3.35;0.88;;;11.20;99.90;;;;;;10057343;28;20053;-66
2024/01/24 01:00:47;;;;;;;4.82;0.80;;;11.20;99.90;;;;;;10058716;28;20025;-66
2024/01/24 01:05:38;;;;;;;2.22;0.65;;;11.30;99.90;;;;;;10056875;28;20128;-66
2024/01/24 01:10:28;;;;;;;1.70;0.75;;;11.30;99.90;;;;;;10057807;28;20159;-65
2024/01/24 01:15:19;;;;;;;1.13;0.65;;;11.30;99.90;;;;;;10057060;28;20025;-66
2024/01/24 01:20:11;;;;;;;1.90;0.68;;;11.20;99.90;;;;;;10056815;28;20053;-68
2024/01/24 01:25:02;;;;;;;2.50;1.23;;;11.30;99.90;;;;;;10051010;28;20033;-67
2024/01/24 01:29:53;;;;;;;0.90;0.52;;;11.30;99.90;;;;;;10056773;28;20083;-65
2024/01/24 01:34:44;;;;;;;1.95;0.75;;;11.30;99.90;;;;;;10054626;28;20083;-65
2024/01/24 01:39:34;;;;;;;1.13;0.60;;;11.30;99.90;;;;;;10056373;28;20029;-65
2024/01/24 01:44:25;;;;;;;2.35;1.10;;;11.30;99.90;;;;;;10055713;28;20017;-65
2024/01/24 01:49:15;;;;;;;2.70;0.68;;;11.30;99.90;;;;;;10054802;28;20041;-67
2024/01/24 01:54:08;;;;;;;1.15;0.47;;;11.30;99.90;;;;;;10052702;28;20069;-67
2024/01/24 01:58:59;;;;;;;0.80;0.65;;;11.30;99.90;;;;;;10055219;28;20030;-66
2024/01/24 02:03:50;;;;;;;0.88;0.60;;;11.30;99.90;;;;;;10055027;28;20033;-66
2024/01/24 02:08:43;;;;;;;1.85;0.77;;;11.30;99.90;;;;;;10058694;28;20029;-66
2024/01/24 02:13:34;;;;;;;1.35;0.55;;;11.30;99.90;;;;;;10049615;28;20025;-66
2024/01/24 02:18:24;;;;;;;2.38;0.80;;;11.30;99.90;;;;;;10055449;28;20038;-67
2024/01/24 02:23:17;;;;;;;1.55;0.60;;;11.30;99.90;;;;;;10058816;28;20053;-66
2024/01/24 02:28:08;;;;;;;2.25;0.77;;;11.30;99.90;;;;;;10055595;28;20045;-67
2024/01/24 02:32:59;;;;;;;0.73;0.70;;;11.30;99.90;;;;;;10055412;28;20582;-67
2024/01/24 02:37:49;;;;;;;2.22;0.85;;;11.30;99.90;;;;;;10055475;28;20046;-67
2024/01/24 02:42:40;;;;;;;0.75;0.47;;;11.40;99.90;;;;;;10055990;28;20060;-66
2024/01/24 02:47:31;;;;;;;1.48;0.43;;;11.30;99.90;;;;;;10054793;28;20503;-66
2024/01/24 02:52:21;;;;;;;3.28;0.82;;;11.40;99.90;;;;;;10055020;28;20033;-66
2024/01/24 02:57:12;;;;;;;2.08;0.50;;;11.40;99.90;;;;;;10055490;28;20066;-67
2024/01/24 03:02:03;;;;;;;2.63;0.93;;;11.40;99.90;;;;;;10057240;28;20486;-67
2024/01/24 03:06:55;;;;;;;1.20;0.50;;;11.40;99.90;;;;;;10065705;28;20038;-66
2024/01/24 03:11:45;;;;;;;4.95;0.60;;;11.40;99.90;;;;;;10061630;28;20584;-68
2024/01/24 03:16:36;;;;;;;0.68;0.50;;;11.50;99.90;;;;;;10066799;28;20063;-67
2024/01/24 03:21:27;;;;;;;2.05;0.80;;;11.50;99.90;;;;;;10061238;28;20136;-66
2024/01/24 03:26:18;;;;;;;0.60;0.52;;;11.50;99.90;;;;;;10058709;28;20022;-67
2024/01/24 03:31:09;;;;;;;1.92;1.33;;;11.50;99.90;;;;;;10061231;28;20546;-67
2024/01/24 03:36:00;;;;;;;0.82;0.65;;;11.60;99.90;;;;;;10060636;28;20025;-66
2024/01/24 03:40:50;;;;;;;4.05;0.75;;;11.60;99.90;;;;;;10060725;28;20471;-66
2024/01/24 03:45:42;;;;;;;1.00;0.50;;;11.60;99.90;;;;;;10059911;28;20088;-65
2024/01/24 03:50:33;;;;;;;1.45;0.68;;;11.70;99.90;;;;;;10060587;28;20136;-65
2024/01/24 03:55:24;;;;;;;3.78;0.75;;;11.70;99.90;;;;;;10060501;28;20056;-66
2024/01/24 04:00:16;;;;;;;2.20;0.40;;;11.80;99.90;;;;;;10062468;28;20503;-65
2024/01/24 04:05:07;;;;;;;1.10;0.52;;;11.80;99.90;;;;;;10059380;28;20593;-65
2024/01/24 04:09:59;;;;;;;1.00;0.70;;;11.80;99.90;;;;;;10059014;28;20067;-65
2024/01/24 04:14:49;;;;;;;1.67;0.70;;;11.80;99.90;;;;;;10057832;28;20033;-66
2024/01/24 04:19:40;;;;;;;0.40;0.30;;;11.80;99.90;;;;;;10059442;28;20026;-65
2024/01/24 04:24:31;;;;;;;1.58;0.60;;;11.90;99.90;;;;;;10058804;28;20042;-66
2024/01/24 04:29:21;;;;;;;0.45;0.43;;;11.90;99.90;;;;;;10057773;28;20049;-66
2024/01/24 04:34:12;;;;;;;1.38;0.45;;;11.90;99.90;;;;;;10058330;28;20403;-66
2024/01/24 04:39:03;;;;;;;1.27;0.55;;;11.90;99.90;;;;;;10058711;28;20021;-65
2024/01/24 04:43:53;;;;;;;0.95;0.43;;;11.90;99.90;;;;;;10058197;28;20095;-66
2024/01/24 04:48:45;;;;;;;1.23;0.75;;;12.00;99.90;;;;;;10048704;28;20804;-66
2024/01/24 04:53:35;;;;;;;0.63;0.55;;;11.90;99.90;;;;;;10055463;28;20618;-66
2024/01/24 04:58:26;;;;;;;2.05;0.57;;;12.00;99.90;;;;;;10062408;28;20037;-66
2024/01/24 05:03:17;;;;;;;2.30;0.70;;;12.00;99.90;;;;;;10056961;28;20025;-65
2024/01/24 05:08:08;;;;;;;1.60;0.95;;;12.00;99.90;;;;;;10057129;28;20442;-66
2024/01/24 05:12:58;;;;;;;0.40;0.32;;;12.00;99.90;;;;;;10057094;28;20030;-67
2024/01/24 05:17:49;;;;;;;0.93;0.40;;;12.10;99.90;;;;;;10058047;28;20406;-67
2024/01/24 05:22:40;;;;;;;0.40;0.25;;;12.20;99.90;;;;;;10056712;28;20048;-66
2024/01/24 05:27:30;;;;;;;0.70;0.55;;;12.30;99.90;;;;;;10056528;28;20033;-65
2024/01/24 05:32:21;;;;;;;0.88;0.35;;;12.30;99.90;;;;;;10056926;28;20029;-65
2024/01/24 05:37:11;;;;;;;1.23;0.40;;;12.30;99.90;;;;;;10056588;28;20029;-65
2024/01/24 05:42:02;;;;;;;1.92;0.35;;;12.30;99.90;;;;;;10056031;28;20036;-65
2024/01/24 05:46:53;;;;;;;0.65;0.25;;;12.40;99.90;;;;;;10056387;28;20040;-66
2024/01/24 05:51:43;;;;;;;0.55;0.43;;;12.30;99.90;;;;;;10056804;28;20036;-65
2024/01/24 05:56:35;;;;;;;0.40;0.40;;;12.40;99.90;;;;;;10057587;28;20124;-66
2024/01/24 06:01:25;;;;;;;0.80;0.40;;;12.30;99.90;;;;;;10056014;28;20052;-67
2024/01/24 06:06:18;;;;;;;1.88;0.40;;;12.30;99.90;;;;;;10056021;28;20022;-68
2024/01/24 06:11:09;;;;;;;0.63;0.63;;;12.20;99.90;;;;;;10056069;28;20029;-67
2024/01/24 06:16:00;;;;;;;0.45;0.30;;;12.20;99.90;;;;;;10054069;28;20056;-67
2024/01/24 06:20:51;;;;;;;1.52;0.70;;;12.20;99.90;;;;;;10054539;28;20531;-66
2024/01/24 06:25:42;;;;;;;1.80;1.27;;;12.20;99.90;;;;;;10056795;28;20025;-68
2024/01/24 06:30:32;;;;;;;0.55;0.50;;;12.30;99.90;;;;;;10055352;28;20510;-68
2024/01/24 06:35:23;;;;;;;0.88;0.60;;;12.30;99.90;;;;;;10054864;28;20030;-67
2024/01/24 06:40:14;;;;;;;0.93;0.50;;;12.30;99.90;;;;;;10063293;28;20033;-68
2024/01/24 06:45:06;;;;;;;1.15;0.50;;;12.40;99.90;;;;;;10061902;28;20123;-66
2024/01/24 06:49:56;;;;;;;0.73;0.30;;;12.50;99.90;;;;;;10063746;28;20163;-65
2024/01/24 06:54:47;;;;;;;1.25;0.25;;;12.60;99.90;;;;;;10049510;28;20128;-66
2024/01/24 06:59:38;;;;;;;0.82;0.50;;;12.80;99.90;;;;;;10045803;28;20087;-66
2024/01/24 07:04:29;;;;;;;1.00;0.40;;;12.80;99.90;;;;;;10054136;28;20423;-66
2024/01/24 07:09:20;;;;;;;1.15;0.30;;;12.80;99.90;;;;;;10061754;28;20038;-66
2024/01/24 07:14:12;;;;;;;1.75;0.52;;;12.90;99.90;;;;;;10055938;28;20030;-67
2024/01/24 07:19:03;;;;;;;0.73;0.50;;;12.90;99.90;;;;;;10061991;28;20075;-68
2024/01/24 07:23:53;;;;;;;1.02;0.50;;;12.90;99.90;;;;;;10059410;28;20077;-68
2024/01/24 07:28:44;;;;;;;0.95;0.40;;;12.80;99.90;;;;;;10061027;28;20570;-65
2024/01/24 07:33:35;;;;;;;1.02;0.50;;;12.90;99.90;;;;;;10060121;28;20033;-65
2024/01/24 07:38:25;;;;;;;0.25;0.25;;;12.90;99.90;;;;;;10059756;28;20017;-67
2024/01/24 07:43:16;;;;;;;1.05;0.32;;;12.90;99.90;;;;;;10054496;28;20021;-65
2024/01/24 07:48:07;;;;;;;0.25;0.20;;;12.90;99.90;;;;;;10049230;28;20119;-66
2024/01/24 07:52:58;;;;;;;1.13;0.30;;;12.80;99.90;;;;;;10051297;28;20021;-66
2024/01/24 07:57:49;;;;;;;1.67;0.40;;;12.90;99.90;;;;;;10050327;28;20040;-65
2024/01/24 08:02:39;;;;;;;0.60;0.30;;;12.80;99.90;;;;;;10045354;28;20112;-66
2024/01/24 08:07:33;;;;;;;0.95;0.32;;;12.90;99.90;;;;;;10045474;28;20545;-66
2024/01/24 08:12:23;;;;;;;0.38;0.30;;;12.90;99.90;;;;;;10057057;28;20511;-66
2024/01/24 08:17:14;;;;;;;0.65;0.30;;;12.90;99.90;;;;;;10054044;28;20033;-69
2024/01/24 08:22:05;;;;;;;0.75;0.40;;;12.90;99.90;;;;;;10058963;28;20048;-68
2024/01/24 08:26:56;;;;;;;0.85;0.28;;;12.90;99.90;;;;;;10054506;28;20041;-69
2024/01/24 08:31:46;;;;;;;0.20;0.20;;;12.90;99.90;;;;;;10052755;28;20151;-69
2024/01/24 08:36:39;;;;;;;0.75;0.55;;;12.90;99.90;;;;;;10056611;28;20124;-68
2024/01/24 08:41:30;;;;;;;0.60;0.20;;;12.90;99.90;;;;;;10059187;28;20530;-68
2024/01/24 08:46:20;;;;;;;0.28;0.20;;;13.00;99.90;;;;;;10059054;28;20036;-68
2024/01/24 08:51:12;;;;;;;0.68;0.38;;;13.00;99.90;;;;;;10058287;28;20592;-68
2024/01/24 08:56:03;;;;;;;0.47;0.40;;;13.10;99.90;;;;;;10059982;28;20516;-68
2024/01/24 09:00:54;;;;;;;2.05;0.40;;;13.10;99.90;;;;;;10054070;28;20021;-67
2024/01/24 09:05:45;;;;;;;0.43;0.30;;;13.10;99.90;;;;;;10087360;28;20037;-68
2024/01/24 09:10:36;;;;;;;0.32;0.28;;;13.10;99.90;;;;;;10054615;28;20029;-68
2024/01/24 09:15:26;;;;;;;0.50;0.40;;;13.20;99.90;;;;;;10052701;28;20048;-68
2024/01/24 09:20:17;;;;;;;0.90;0.40;;;13.30;99.90;;;;;;10055429;28;20541;-67
2024/01/24 09:25:08;;;;;;;0.93;0.40;;;13.30;99.90;;;;;;10056770;28;20459;-68
2024/01/24 09:29:58;;;;;;;0.32;0.30;;;13.40;99.90;;;;;;10047838;28;20108;-67
2024/01/24 09:34:49;;;;;;;0.70;0.43;;;13.50;99.90;;;;;;10050975;28;20431;-67
2024/01/24 09:39:40;;;;;;;1.25;0.22;;;13.60;99.90;;;;;;10054566;28;20036;-67
2024/01/24 09:44:32;;;;;;;0.30;0.20;;;13.60;99.90;;;;;;10039869;28;20503;-66
2024/01/24 09:49:23;;;;;;;0.90;0.35;;;13.70;99.90;;;;;;10034886;28;20033;-66
2024/01/24 09:54:16;;;;;;;0.60;0.30;;;13.70;99.90;;;;;;10030927;28;21408;-68
2024/01/24 09:59:07;;;;;;;1.08;0.65;;;13.80;99.90;;;;;;10055842;28;20034;-68
2024/01/24 10:03:59;;;;;;;3.80;0.90;;;13.80;99.90;;;;;;10039679;28;20089;-68
2024/01/24 10:08:50;;;;;;;0.30;0.20;;;13.90;99.90;;;;;;10040339;28;20458;-67
2024/01/24 10:13:43;;;;;;;0.30;0.20;;;13.90;99.90;;;;;;10056779;28;20029;-67
2024/01/24 10:18:34;;;;;;;0.63;0.40;;;14.00;99.90;;;;;;10059859;28;20021;-67
2024/01/24 10:23:25;;;;;;;0.68;0.30;;;14.10;99.90;;;;;;10054069;28;20057;-68
2024/01/24 10:28:16;;;;;;;0.73;0.65;;;14.20;99.90;;;;;;10055995;28;20091;-68
2024/01/24 10:33:11;;;;;;;0.82;0.20;;;14.30;99.90;;;;;;10055828;28;20384;-67
2024/01/24 10:38:02;;;;;;;2.03;0.30;;;14.40;99.90;;;;;;10050805;28;20520;-69
2024/01/24 10:42:59;;;;;;;0.10;0.10;;;14.50;99.90;;;;;;10059521;28;20032;-69
2024/01/24 10:47:51;;;;;;;0.20;0.15;;;14.50;99.90;;;;;;10053518;28;20115;-69
2024/01/24 10:52:43;;;;;;;0.68;0.20;;;14.50;99.90;;;;;;10045675;28;20034;-68
2024/01/24 10:57:34;;;;;;;0.40;0.30;;;14.50;99.90;;;;;;10056373;28;20040;-66
2024/01/24 11:02:25;;;;;;;1.48;0.60;;;14.40;99.90;;;;;;10054175;28;20025;-69
2024/01/24 11:07:24;;;;;;;0.38;0.30;;;14.40;99.90;;;;;;10058121;28;20292;-68
2024/01/24 11:12:15;;;;;;;0.47;0.20;;;14.40;99.90;;;;;;10055018;28;20041;-68
2024/01/24 11:17:05;;;;;;;1.10;0.60;;;14.50;99.90;;;;;;10062133;28;20088;-67
2024/01/24 11:22:06;;;;;;;0.98;0.47;;;14.40;99.90;;;;;;10060958;28;20062;-70
2024/01/24 11:26:56;;;;;;;1.13;0.32;;;14.40;99.90;;;;;;10060067;28;20116;-67
2024/01/24 11:31:47;;;;;;;0.93;0.60;;;14.40;99.90;;;;;;10056693;28;20125;-67
2024/01/24 11:36:50;;;;;;;1.13;0.70;;;14.10;99.90;;;;;;10056863;28;20039;-68
2024/01/24 11:41:41;;;;;;;2.13;0.55;;;13.80;99.90;;;;;;10055899;28;20033;-69
2024/01/24 11:46:32;;;;;;;1.48;0.80;;;13.70;99.90;;;;;;10055618;28;20515;-70
2024/01/24 11:51:23;;;;;;;0.75;0.50;;;13.60;99.90;;;;;;10052445;28;20042;-67
2024/01/24 11:56:15;;;;;;;0.98;0.60;;;13.50;99.90;;;;;;10053922;28;20025;-69
2024/01/24 12:01:10;;;;;;;0.50;0.30;;;13.50;99.90;;;;;;10058355;28;20033;-70
2024/01/24 12:06:04;;;;;;;0.80;0.55;;;13.50;99.90;;;;;;10044469;28;20049;-69
2024/01/24 12:10:55;;;;;;;1.00;0.80;;;13.50;99.90;;;;;;10040723;28;20460;-70
2024/01/24 12:15:47;;;;;;;3.38;1.08;;;13.50;99.90;;;;;;10038850;28;20022;-69
2024/01/24 12:20:38;;;;;;;0.52;0.40;;;13.50;99.90;;;;;;10041343;28;20048;-69
2024/01/24 12:25:29;;;;;;;1.58;0.60;;;13.50;99.90;;;;;;10044001;28;20032;-68
2024/01/24 12:30:20;;;;;;;0.77;0.60;;;13.40;99.90;;;;;;10034883;28;20046;-68
2024/01/24 12:35:15;;;;;;;0.88;0.50;;;13.30;99.90;;;;;;10046409;28;20025;-68
2024/01/24 12:40:09;;;;;;;0.90;0.50;;;13.30;99.90;;;;;;10055706;28;20029;-68
2024/01/24 12:44:59;;;;;;;0.57;0.43;;;13.30;99.90;;;;;;10057673;28;20569;-69
2024/01/24 12:49:50;;;;;;;0.98;0.20;;;13.50;99.90;;;;;;10058863;28;20123;-68
2024/01/24 12:54:41;;;;;;;5.97;1.90;;;13.60;99.90;;;;;;10042578;28;20125;-68
2024/01/24 12:59:31;;;;;;;1.33;0.30;;;13.70;99.90;;;;;;10071065;28;20115;-69
2024/01/24 13:04:22;;;;;;;0.60;0.30;;;13.80;99.90;;;;;;10068482;28;20026;-68
2024/01/24 13:09:13;;;;;;;0.47;0.35;;;13.90;99.90;;;;;;10056471;28;20168;-68
2024/01/24 13:14:03;;;;;;;1.17;0.40;;;13.90;99.90;;;;;;10054995;28;20104;-68
2024/01/24 13:18:54;;;;;;;3.40;0.40;;;14.00;99.90;;;;;;10057754;28;20047;-68
2024/01/24 13:23:45;;;;;;;3.25;0.55;;;14.00;99.90;;;;;;10057140;28;20111;-67
2024/01/24 13:28:35;;;;;;;0.70;0.40;;;14.00;99.90;;;;;;10057943;28;20034;-67
2024/01/24 13:33:26;;;;;;;1.77;0.60;;;14.10;99.90;;;;;;10057442;28;20028;-67
2024/01/24 13:38:17;;;;;;;1.60;0.55;;;14.20;99.90;;;;;;10057641;28;20049;-67
2024/01/24 13:43:07;;;;;;;2.15;0.68;;;14.30;99.90;;;;;;10057388;28;20558;-67
2024/01/24 13:47:58;;;;;;;3.97;0.75;;;14.30;99.90;;;;;;10056809;28;20034;-67
2024/01/24 13:52:49;;;;;;;2.40;0.75;;;14.40;99.90;;;;;;10055684;28;20028;-68
2024/01/24 13:57:41;;;;;;;3.53;0.80;;;14.40;99.90;;;;;;10056795;28;20072;-67
2024/01/24 14:02:31;;;;;;;3.08;0.68;;;14.40;99.90;;;;;;10067691;28;20559;-67
2024/01/24 14:07:22;;;;;;;2.30;1.30;;;14.40;99.90;;;;;;10056395;28;20140;-68
2024/01/24 14:12:13;;;;;;;2.53;1.35;;;14.40;99.90;;;;;;10056242;28;20013;-67
2024/01/24 14:17:03;;;;;;;2.95;0.60;;;14.40;99.90;;;;;;10056733;28;20133;-68
2024/01/24 14:21:55;;;;;;;1.65;0.50;;;14.40;99.90;;;;;;10055959;28;20553;-67
2024/01/24 14:26:47;;;;;;;2.05;0.73;;;14.50;99.90;;;;;;10056410;28;20028;-68
2024/01/24 14:31:38;;;;;;;0.57;0.52;;;14.50;99.90;;;;;;10056201;28;20037;-67
2024/01/24 14:36:33;;;;;;;3.55;1.00;;;14.50;99.90;;;;;;10056317;28;20018;-68
2024/01/24 14:41:23;;;;;;;2.10;0.80;;;14.50;99.90;;;;;;10056148;28;20049;-68
2024/01/24 14:46:14;;;;;;;2.35;0.82;;;14.50;99.90;;;;;;10056223;28;20506;-68
2024/01/24 14:51:05;;;;;;;2.22;1.10;;;14.50;99.90;;;;;;10056220;28;20044;-68
2024/01/24 14:55:55;;;;;;;1.95;0.85;;;14.50;99.90;;;;;;10056963;28;20018;-68
2024/01/24 15:00:47;;;;;;;1.27;0.50;;;14.50;99.90;;;;;;10055805;28;20036;-68
2024/01/24 15:05:38;;;;;;;2.22;1.10;;;14.50;99.90;;;;;;10081391;28;20036;-68
2024/01/24 15:10:28;;;;;;;0.60;0.43;;;14.50;99.90;;;;;;10054071;28;20048;-68
2024/01/24 15:15:19;;;;;;;1.17;0.63;;;14.50;99.90;;;;;;10057174;28;20132;-68
2024/01/24 15:20:13;;;;;;;2.85;0.73;;;14.40;99.90;;;;;;10041604;28;20041;-69
2024/01/24 15:25:04;;;;;;;2.35;1.23;;;14.40;99.90;;;;;;10051376;28;20120;-67
2024/01/24 15:29:55;;;;;;;3.20;0.75;;;14.40;99.90;;;;;;10055935;28;20069;-67
2024/01/24 15:34:46;;;;;;;2.40;0.88;;;14.40;99.90;;;;;;10045927;28;20030;-67
2024/01/24 15:39:36;;;;;;;0.80;0.57;;;14.40;99.90;;;;;;10039394;28;20101;-67
2024/01/24 15:44:27;;;;;;;2.33;0.60;;;14.30;99.90;;;;;;10041785;28;20426;-68
2024/01/24 15:49:18;;;;;;;2.30;0.80;;;14.30;99.90;;;;;;10059799;28;20079;-69
2024/01/24 15:54:08;;;;;;;3.53;1.02;;;14.30;99.90;;;;;;10058606;28;20033;-68
2024/01/24 15:58:59;;;;;;;0.95;0.75;;;14.30;99.90;;;;;;10051274;28;20166;-69
2024/01/24 16:03:51;;;;;;;3.72;0.80;;;14.30;99.90;;;;;;10043220;28;20042;-69
2024/01/24 16:08:42;;;;;;;2.38;0.88;;;14.30;99.90;;;;;;10055949;28;20179;-67
2024/01/24 16:13:32;;;;;;;2.33;0.65;;;14.30;99.90;;;;;;10050580;28;20480;-68
2024/01/24 16:18:23;;;;;;;5.57;1.23;;;14.20;99.90;;;;;;10059734;28;20053;-69
2024/01/24 16:23:14;;;;;;;3.03;1.08;;;14.20;99.90;;;;;;10058545;28;20050;-68
2024/01/24 16:28:04;;;;;;;4.53;1.65;;;14.20;99.90;;;;;;10058916;28;20037;-68
2024/01/24 16:32:55;;;;;;;2.33;0.70;;;14.20;99.90;;;;;;10059719;28;20047;-68
2024/01/24 16:37:46;;;;;;;2.05;1.15;;;14.20;99.90;;;;;;10051028;28;20034;-69
2024/01/24 16:42:37;;;;;;;2.55;1.15;;;14.20;99.90;;;;;;10055994;28;20047;-67
2024/01/24 16:47:27;;;;;;;4.03;0.85;;;14.20;99.90;;;;;;10039191;28;20053;-68
2024/01/24 16:52:22;;;;;;;4.25;1.23;;;14.20;99.90;;;;;;10057719;28;20021;-68
2024/01/24 16:57:14;;;;;;;3.72;1.15;;;14.20;99.90;;;;;;10056715;28;20029;-69
2024/01/24 17:02:05;;;;;;;3.80;0.80;;;14.20;99.90;;;;;;10044791;28;20037;-67
2024/01/24 17:06:56;;;;;;;3.60;1.02;;;14.20;99.90;;;;;;10052045;28;20037;-67
2024/01/24 17:11:47;;;;;;;2.85;1.20;;;14.20;99.90;;;;;;10047915;28;20039;-68
2024/01/24 17:16:39;;;;;;;3.35;1.17;;;14.20;99.90;;;;;;10030237;28;20970;-69
2024/01/24 17:21:29;;;;;;;2.88;1.35;;;14.10;99.90;;;;;;10044724;28;20042;-69
2024/01/24 17:26:20;;;;;;;4.45;1.20;;;14.10;99.90;;;;;;10047809;28;20029;-69
2024/01/24 17:31:13;;;;;;;4.18;1.42;;;14.10;99.90;;;;;;10051888;28;20044;-69
2024/01/24 17:36:03;;;;;;;9.02;1.30;;;14.10;99.90;;;;;;10055348;28;20013;-67
2024/01/24 17:40:54;;;;;;;4.53;1.40;;;14.10;99.90;;;;;;10056305;28;20598;-69
2024/01/24 17:45:45;;;;;;;3.40;1.15;;;14.00;99.90;;;;;;10042198;28;20033;-70
2024/01/24 17:50:36;;;;;;;3.08;1.73;;;14.00;99.90;;;;;;10039365;28;20403;-69
2024/01/24 17:55:27;;;;;;;1.63;1.20;;;14.00;99.90;;;;;;10054525;28;20021;-68
2024/01/24 18:00:18;;;;;;;3.40;0.98;;;14.00;99.90;;;;;;10058380;28;20033;-69
2024/01/24 18:05:09;;;;;;;4.20;2.00;;;13.90;99.90;;;;;;10068155;28;20051;-68
2024/01/24 18:10:01;;;;;;;2.80;1.02;;;13.90;99.90;;;;;;10063715;28;20042;-70
2024/01/24 18:14:51;;;;;;;2.10;1.48;;;13.90;99.90;;;;;;10068737;28;20025;-70
2024/01/24 18:19:42;;;;;;;6.57;2.65;;;13.90;99.90;;;;;;10071704;28;20041;-70
2024/01/24 18:24:33;;;;;;;4.45;2.15;;;13.90;99.90;;;;;;10085244;28;20099;-69
2024/01/24 18:29:23;;;;;;;3.63;1.73;;;13.90;99.90;;;;;;10042449;28;20073;-69
2024/01/24 18:34:16;;;;;;;5.97;2.53;;;13.90;99.90;;;;;;10068223;28;20026;-69
2024/01/24 18:39:06;;;;;;;3.63;2.53;;;13.90;99.90;;;;;;10064561;28;20479;-68
2024/01/24 18:43:57;;;;;;;11.20;4.53;;;13.90;99.90;;;;;;10067880;28;20037;-70
2024/01/24 18:48:48;;;;;;;10.23;3.25;;;13.90;99.90;;;;;;10059303;28;20052;-67
2024/01/24 18:53:38;;;;;;;9.02;2.20;;;13.90;99.90;;;;;;10059927;28;20029;-70
2024/01/24 18:58:29;;;;;;;7.13;1.92;;;13.80;99.90;;;;;;10060231;28;20063;-68
2024/01/24 19:03:20;;;;;;;8.85;4.18;;;13.90;99.90;;;;;;10059295;28;20768;-68
2024/01/24 19:08:10;;;;;;;7.93;2.28;;;13.90;99.90;;;;;;10059733;28;20037;-68
2024/01/24 19:13:01;;;;;;;6.47;1.98;;;13.90;99.90;;;;;;10059469;28;20033;-69
2024/01/24 19:17:52;;;;;;;4.18;1.90;;;13.90;99.90;;;;;;10049636;28;20036;-68
2024/01/24 19:22:42;;;;;;;8.10;1.90;;;13.90;99.90;;;;;;10040980;28;1158054;-69
2024/01/24 19:27:33;;;;;;;6.93;1.63;;;13.90;99.90;;;;;;10078856;28;20164;-67
2024/01/24 19:32:24;;;;;;;7.47;2.20;;;13.80;99.90;;;;;;10070956;28;20104;-69
2024/01/24 19:37:14;;;;;;;4.53;2.47;;;13.80;99.90;;;;;;10075270;28;20431;-68
2024/01/24 19:42:05;;;;;;;6.88;2.10;;;13.80;99.90;;;;;;10078895;28;20025;-67
2024/01/24 19:46:56;;;;;;;5.68;1.58;;;13.80;99.90;;;;;;10063238;28;20616;-67
2024/01/24 19:51:48;;;;;;;6.68;1.85;;;13.80;99.90;;;;;;10078914;28;20040;-67
2024/01/24 19:56:42;;;;;;;7.40;2.67;;;13.80;99.90;;;;;;10076914;28;20048;-66
2024/01/24 20:01:32;;;;;;;4.88;1.90;;;13.80;99.90;;;;;;10077022;28;20025;-68
2024/01/24 20:06:23;;;;;;;5.40;2.00;;;13.70;99.90;;;;;;10073058;28;20079;-69
2024/01/24 20:11:14;;;;;;;8.63;2.47;;;13.70;99.90;;;;;;10078369;28;20044;-68
2024/01/24 20:16:05;;;;;;;7.35;1.73;;;13.70;99.90;;;;;;10073435;28;20240;-67
2024/01/24 20:20:55;;;;;;;10.07;2.05;;;13.70;99.90;;;;;;10071653;28;20495;-68
2024/01/24 20:25:46;;;;;;;7.18;2.47;;;13.70;99.90;;;;;;10073438;28;20109;-68
2024/01/24 20:30:37;;;;;;;6.97;1.85;;;13.70;99.90;;;;;;10037204;28;20522;-66
2024/01/24 20:35:28;;;;;;;6.18;1.90;;;13.80;99.90;;;;;;10038614;28;20037;-67
2024/01/24 20:40:18;;;;;;;14.10;3.58;;;13.70;99.90;;;;;;10041724;28;20021;-67
2024/01/24 20:45:10;;;;;;;5.35;2.20;;;13.70;99.90;;;;;;10044979;28;20224;-69
2024/01/24 20:50:01;;;;;;;6.72;2.25;;;13.70;99.90;;;;;;10053048;28;20041;-71
2024/01/24 20:54:51;;;;;;;4.75;1.80;;;13.70;99.90;;;;;;10048061;28;20470;-68
2024/01/24 20:59:43;;;;;;;7.32;1.80;;;13.70;99.90;;;;;;10038503;28;20048;-67
2024/01/24 21:04:33;;;;;;;6.75;1.95;;;13.70;99.90;;;;;;10048347;28;20088;-69
2024/01/24 21:09:25;;;;;;;7.88;1.80;;;13.70;99.90;;;;;;10072377;28;20102;-68
2024/01/24 21:14:16;;;;;;;9.13;2.40;;;13.70;99.90;;;;;;10058454;28;20026;-67
2024/01/24 21:19:07;;;;;;;4.18;2.47;;;13.80;99.90;;;;;;10049199;28;20543;-68
2024/01/24 21:23:57;;;;;;;4.28;1.92;;;13.80;99.90;;;;;;10043995;28;20046;-69
2024/01/24 21:28:48;;;;;;;6.40;1.58;;;13.80;99.90;;;;;;10038883;28;20052;-68
2024/01/24 21:33:39;;;;;;;12.65;2.55;;;13.80;99.90;;;;;;10040591;28;20033;-67
2024/01/24 21:38:29;;;;;;;11.02;2.33;;;13.80;99.90;;;;;;10053734;28;20083;-69
2024/01/24 21:43:21;;;;;;;8.98;1.85;;;13.80;99.90;;;;;;10050209;28;20033;-67
2024/01/24 21:48:12;;;;;;;6.03;2.00;;;13.80;99.90;;;;;;10041977;28;20030;-68
2024/01/24 21:53:04;;;;;;;7.00;2.25;;;13.80;99.90;;;;;;10047562;28;20029;-68
2024/01/24 21:57:54;;;;;;;6.03;1.95;;;13.80;99.90;;;;;;10051601;28;20037;-68
2024/01/24 22:02:45;;;;;;;7.60;2.22;;;13.80;99.90;;;;;;10048899;28;20044;-69
2024/01/24 22:07:36;;;;;;;7.00;2.42;;;13.80;99.90;;;;;;10053284;28;20037;-69
2024/01/24 22:12:26;;;;;;;14.25;3.55;;;13.80;99.90;;;;;;10049152;28;20487;-68
2024/01/24 22:17:17;;;;;;;11.00;2.75;;;13.80;99.90;;;;;;10038084;28;20423;-67
2024/01/24 22:22:08;;;;;;;7.90;3.33;;;13.70;99.90;;;;;;10024043;28;20056;-69
2024/01/24 22:26:59;;;;;;;7.47;2.97;;;13.80;99.90;;;;;;10053918;28;20132;-68
2024/01/24 22:31:49;;;;;;;7.43;2.28;;;13.60;99.90;;;;;;10047747;28;20384;-67
2024/01/24 22:36:40;;;;;;;8.73;2.88;;;13.70;99.90;;;;;;10054547;28;20034;-71
2024/01/24 22:41:31;;;;;;;5.38;1.77;;;13.70;99.90;;;;;;10055498;28;20026;-67
2024/01/24 22:46:21;;;;;;;5.72;1.80;;;13.70;99.90;;;;;;10061166;28;20029;-68
2024/01/24 22:51:13;;;;;;;4.20;1.50;;;13.70;99.90;;;;;;10056512;28;20107;-68
2024/01/24 22:56:04;;;;;;;9.25;1.88;;;13.60;99.90;;;;;;10055675;28;20168;-68
2024/01/24 23:00:54;;;;;;;6.90;2.20;;;13.60;99.90;;;;;;10049044;28;20538;-69
2024/01/24 23:05:45;;;;;;;4.80;1.60;;;13.60;99.90;;;;;;10054358;28;20033;-68
2024/01/24 23:10:36;;;;;;;9.95;2.13;;;13.60;99.90;;;;;;10053816;28;20041;-68
2024/01/24 23:15:27;;;;;;;9.80;2.00;;;13.60;99.90;;;;;;10049157;28;20021;-70
2024/01/24 23:20:18;;;;;;;5.97;1.98;;;13.60;99.90;;;;;;10055607;28;20423;-69
2024/01/24 23:25:09;;;;;;;2.78;1.25;;;13.50;99.90;;;;;;10061513;28;20036;-67
2024/01/24 23:29:59;;;;;;;7.20;1.80;;;13.50;99.90;;;;;;10062657;28;20045;-68
2024/01/24 23:34:50;;;;;;;4.70;2.10;;;13.50;99.90;;;;;;10061685;28;20053;-68
2024/01/24 23:39:41;;;;;;;8.68;1.58;;;13.40;99.90;;;;;;10092143;28;20116;-67
2024/01/24 23:44:34;;;;;;;4.25;1.30;;;13.40;99.90;;;;;;10058566;28;20018;-68
2024/01/24 23:49:24;;;;;;;13.45;2.85;;;13.40;99.90;;;;;;10060560;28;20124;-69
2024/01/24 23:54:15;;;;;;;7.38;2.80;;;13.50;99.90;;;;;;10059041;28;20121;-68
2024/01/24 23:59:07;;;;;;;5.72;2.17;;;13.50;99.90;;;;;;10060575;28;20199;-68
